Time;durP1;ratioP1;P1;durP2;ratioP2;P2;SDS_P1;SDS_P2;PMS_P1;PMS_P2;Temp;Humidity;BMP_temperature;BMP_pressure;BME280_temperature;BME280_humidity;BME280_pressure;Samples;Min_cycle;Max_cycle;Signal;HPM_P1;HPM_P2
2021/04/13 00:01:19;;;;;;;59.45;7.00;;;1.00;1.00;;;;;;5135299;27;20244;-64
2021/04/13 00:03:47;;;;;;;60.17;7.53;;;1.10;1.00;;;;;;5135099;27;20202;-65
2021/04/13 00:06:17;;;;;;;60.70;7.85;;;1.10;1.00;;;;;;5135357;27;20199;-65
2021/04/13 00:08:50;;;;;;;59.90;7.50;;;1.10;1.00;;;;;;5134770;27;20222;-65
2021/04/13 00:11:18;;;;;;;61.35;7.28;;;1.10;1.00;;;;;;5135281;27;20209;-65
2021/04/13 00:13:45;;;;;;;60.72;6.93;;;1.20;1.00;;;;;;5135051;27;20275;-65
2021/04/13 00:16:18;;;;;;;60.80;7.75;;;1.20;1.00;;;;;;5134980;27;20582;-65
2021/04/13 00:18:46;;;;;;;60.70;7.30;;;1.20;1.00;;;;;;5134982;27;20226;-64
2021/04/13 00:21:16;;;;;;;59.42;6.85;;;1.20;1.00;;;;;;5134634;27;20297;-65
2021/04/13 00:23:44;;;;;;;60.17;7.10;;;1.20;1.00;;;;;;5134604;27;20290;-65
2021/04/13 00:26:18;;;;;;;61.03;7.65;;;1.20;1.00;;;;;;5134792;27;20615;-65
2021/04/13 00:28:46;;;;;;;61.78;7.65;;;1.10;1.00;;;;;;5134588;27;20747;-65
2021/04/13 00:31:38;;;;;;;61.17;7.50;;;1.10;1.00;;;;;;5134657;27;20207;-65
2021/04/13 00:34:06;;;;;;;59.78;7.60;;;1.00;1.00;;;;;;5134295;27;20297;-65
2021/04/13 00:36:33;;;;;;;60.72;7.75;;;1.00;1.00;;;;;;5134639;27;20237;-65
2021/04/13 00:38:59;;;;;;;60.60;7.80;;;1.00;1.00;;;;;;5134137;27;20428;-65
2021/04/13 00:41:29;;;;;;;62.30;8.82;;;0.90;1.00;;;;;;5134400;27;20293;-65
2021/04/13 00:43:59;;;;;;;62.45;7.95;;;0.90;1.00;;;;;;5134159;27;20294;-65
2021/04/13 00:46:29;;;;;;;61.92;8.63;;;0.90;1.00;;;;;;5134215;27;20255;-65
2021/04/13 00:48:59;;;;;;;64.82;9.10;;;0.90;1.00;;;;;;5134331;27;20309;-65
2021/04/13 00:51:31;;;;;;;63.10;8.80;;;0.80;1.00;;;;;;5134464;27;20207;-65
2021/04/13 00:54:01;;;;;;;63.00;9.00;;;0.80;1.00;;;;;;5134143;27;20294;-65
2021/04/13 00:56:29;;;;;;;61.33;8.18;;;0.80;1.00;;;;;;5134137;27;20199;-65
2021/04/13 00:59:04;;;;;;;63.25;8.40;;;0.80;1.00;;;;;;5133690;27;20317;-65
2021/04/13 01:01:35;;;;;;;61.60;8.75;;;0.80;1.00;;;;;;5133036;27;20206;-65
2021/04/13 01:04:11;;;;;;;64.55;8.93;;;0.80;1.00;;;;;;5133842;27;20674;-65
2021/04/13 01:06:37;;;;;;;64.15;8.98;;;0.80;1.00;;;;;;5133988;27;20289;-64
2021/04/13 01:09:12;;;;;;;61.33;8.35;;;0.80;1.00;;;;;;5133758;27;20595;-65
2021/04/13 01:11:42;;;;;;;62.28;8.43;;;0.80;1.00;;;;;;5134132;27;20213;-66
2021/04/13 01:14:10;;;;;;;63.00;8.85;;;0.70;1.00;;;;;;5133662;27;20238;-65
2021/04/13 01:16:43;;;;;;;64.15;8.50;;;0.70;1.00;;;;;;5133990;27;20291;-65
2021/04/13 01:19:18;;;;;;;60.92;8.70;;;0.70;1.00;;;;;;5133441;27;20313;-65
2021/04/13 01:21:54;;;;;;;63.03;8.35;;;0.70;1.00;;;;;;5133566;27;20730;-65
2021/04/13 01:24:23;;;;;;;62.15;8.73;;;0.70;1.00;;;;;;5133768;27;20285;-65
2021/04/13 01:26:52;;;;;;;61.92;8.20;;;0.60;1.00;;;;;;5133685;27;20203;-65
2021/04/13 01:29:21;;;;;;;62.05;8.10;;;0.60;1.00;;;;;;5133637;27;20219;-65
2021/04/13 01:31:53;;;;;;;62.50;8.65;;;0.60;1.00;;;;;;5133407;27;20297;-65
2021/04/13 01:34:25;;;;;;;61.97;7.85;;;0.60;1.00;;;;;;5133256;27;20257;-65
2021/04/13 01:37:15;;;;;;;62.25;8.70;;;0.60;1.00;;;;;;5133499;27;20235;-65
2021/04/13 01:39:51;;;;;;;61.38;8.05;;;0.50;1.00;;;;;;5133128;27;20313;-65
2021/04/13 01:42:19;;;;;;;61.63;8.43;;;0.50;1.00;;;;;;5133173;27;20256;-65
2021/04/13 01:44:48;;;;;;;63.03;8.75;;;0.50;1.00;;;;;;5133042;27;20209;-65
2021/04/13 01:47:18;;;;;;;63.30;9.15;;;0.50;1.00;;;;;;5133255;27;20298;-65
2021/04/13 01:49:49;;;;;;;63.45;7.95;;;0.50;1.00;;;;;;5133331;27;20309;-65
2021/04/13 01:52:23;;;;;;;60.55;7.88;;;0.50;1.00;;;;;;5133099;27;20208;-65
2021/04/13 01:54:50;;;;;;;64.15;9.38;;;0.50;1.00;;;;;;5132980;27;20206;-65
2021/04/13 01:57:27;;;;;;;61.00;8.23;;;0.40;1.00;;;;;;5132709;27;20223;-65
2021/04/13 01:59:58;;;;;;;61.83;8.65;;;0.40;1.00;;;;;;5132560;27;20218;-65
2021/04/13 02:02:30;;;;;;;61.22;8.10;;;0.40;1.00;;;;;;5132976;27;20213;-65
2021/04/13 02:05:04;;;;;;;63.00;9.38;;;0.40;1.00;;;;;;5133174;27;20195;-65
2021/04/13 02:07:43;;;;;;;62.42;8.73;;;0.40;1.00;;;;;;5132763;27;20207;-65
2021/04/13 02:10:21;;;;;;;63.72;9.10;;;0.40;1.00;;;;;;5132908;27;20294;-65
2021/04/13 02:12:51;;;;;;;62.40;7.60;;;0.30;1.00;;;;;;5132548;27;20210;-65
2021/04/13 02:15:31;;;;;;;62.28;8.98;;;0.30;1.00;;;;;;5132573;27;20758;-65
2021/04/13 02:18:01;;;;;;;60.97;8.75;;;0.30;1.00;;;;;;5132512;27;20333;-65
2021/04/13 02:20:31;;;;;;;63.08;9.50;;;0.30;1.00;;;;;;5132761;27;20688;-65
2021/04/13 02:22:58;;;;;;;64.18;9.10;;;0.20;1.00;;;;;;5132662;27;20610;-65
2021/04/13 02:25:28;;;;;;;62.65;8.70;;;0.20;1.00;;;;;;5132712;27;20290;-65
2021/04/13 02:27:55;;;;;;;61.55;8.05;;;0.20;1.00;;;;;;5132583;27;20237;-65
2021/04/13 02:30:32;;;;;;;61.47;9.63;;;0.20;1.00;;;;;;5132160;27;20740;-65
2021/04/13 02:33:05;;;;;;;62.63;9.45;;;0.20;1.00;;;;;;5132327;27;20227;-65
2021/04/13 02:35:32;;;;;;;60.95;8.65;;;0.20;1.00;;;;;;5132598;27;20669;-65
2021/04/13 02:38:02;;;;;;;61.25;7.53;;;0.20;1.00;;;;;;5132487;27;20227;-65
2021/04/13 02:40:47;;;;;;;62.75;8.00;;;0.10;1.00;;;;;;5132924;27;20209;-65
2021/04/13 02:43:18;;;;;;;62.92;9.05;;;0.10;1.00;;;;;;5132605;27;20628;-65
2021/04/13 02:45:48;;;;;;;61.03;8.45;;;0.10;1.00;;;;;;5132217;27;20189;-65
2021/04/13 02:48:20;;;;;;;62.20;8.80;;;0.00;1.00;;;;;;5132432;27;20206;-65
2021/04/13 02:50:48;;;;;;;61.28;8.50;;;0.00;1.00;;;;;;5132478;27;20694;-65
2021/04/13 02:53:17;;;;;;;61.50;8.57;;;-0.10;1.00;;;;;;5132099;27;20290;-65
2021/04/13 02:55:50;;;;;;;63.58;9.25;;;-0.10;1.00;;;;;;5132123;27;20583;-65
2021/04/13 02:58:19;;;;;;;61.67;8.18;;;-0.10;1.00;;;;;;5132032;27;20219;-65
2021/04/13 03:00:48;;;;;;;62.40;9.77;;;-0.10;1.00;;;;;;5132318;27;20207;-65
2021/04/13 03:03:19;;;;;;;64.32;10.30;;;-0.10;1.00;;;;;;5131991;27;20240;-65
2021/04/13 03:05:51;;;;;;;64.20;10.38;;;-0.10;1.00;;;;;;5131868;27;20360;-65
2021/04/13 03:08:18;;;;;;;65.93;8.80;;;-0.10;1.00;;;;;;5132222;27;20286;-65
2021/04/13 03:10:52;;;;;;;63.30;9.32;;;-0.10;1.00;;;;;;5132290;27;20206;-65
2021/04/13 03:13:22;;;;;;;64.75;9.43;;;-0.10;1.00;;;;;;5132088;27;20643;-65
2021/04/13 03:15:53;;;;;;;63.63;7.97;;;-0.10;1.00;;;;;;5131975;27;20293;-65
2021/04/13 03:18:25;;;;;;;61.85;7.82;;;-0.10;1.00;;;;;;5132187;27;20603;-65
2021/04/13 03:20:55;;;;;;;63.03;8.40;;;0.00;1.00;;;;;;5132208;27;20348;-65
2021/04/13 03:23:27;;;;;;;60.60;8.20;;;0.00;1.00;;;;;;5132031;27;20293;-65
2021/04/13 03:25:58;;;;;;;61.67;8.55;;;0.00;1.00;;;;;;5135808;27;20199;-65
2021/04/13 03:28:29;;;;;;;62.10;8.02;;;0.00;1.00;;;;;;5135700;27;20305;-65
2021/04/13 03:30:55;;;;;;;60.88;7.78;;;0.00;1.00;;;;;;5136097;27;20297;-65
2021/04/13 03:33:26;;;;;;;62.05;8.43;;;0.00;1.00;;;;;;5135837;27;20203;-65
2021/04/13 03:35:57;;;;;;;61.90;7.97;;;0.00;1.00;;;;;;5135690;27;20294;-65
2021/04/13 03:38:27;;;;;;;60.40;7.80;;;0.00;1.00;;;;;;5135436;27;20244;-65
2021/04/13 03:40:54;;;;;;;60.28;8.27;;;-0.10;1.00;;;;;;5135656;27;20214;-65
2021/04/13 03:43:24;;;;;;;63.25;8.80;;;-0.10;1.00;;;;;;5135308;27;20205;-65
2021/04/13 03:45:53;;;;;;;60.40;7.80;;;-0.10;1.00;;;;;;5135567;27;20207;-65
2021/04/13 03:48:22;;;;;;;63.13;9.07;;;-0.10;1.00;;;;;;5135514;27;20298;-65
2021/04/13 03:50:59;;;;;;;63.33;8.02;;;-0.20;1.00;;;;;;5135537;27;20297;-65
2021/04/13 03:53:32;;;;;;;61.92;7.88;;;-0.20;1.00;;;;;;5135569;27;20617;-65
2021/04/13 03:56:02;;;;;;;60.85;8.10;;;-0.20;1.00;;;;;;5135180;27;20667;-65
2021/04/13 03:58:35;;;;;;;62.00;8.52;;;-0.30;1.00;;;;;;5135236;27;20313;-65
2021/04/13 04:01:01;;;;;;;62.17;8.00;;;-0.30;1.00;;;;;;5135182;27;20239;-65
2021/04/13 04:03:33;;;;;;;62.25;8.02;;;-0.30;1.00;;;;;;5135163;27;20199;-65
2021/04/13 04:06:02;;;;;;;62.88;9.15;;;-0.30;1.00;;;;;;5135233;27;20629;-65
2021/04/13 04:08:41;;;;;;;62.00;7.88;;;-0.40;1.00;;;;;;5134780;27;20215;-65
2021/04/13 04:11:08;;;;;;;64.45;8.60;;;-0.40;1.00;;;;;;5135037;27;20720;-65
2021/04/13 04:13:38;;;;;;;60.75;7.75;;;-0.40;1.00;;;;;;5134985;27;20678;-65
2021/04/13 04:16:11;;;;;;;64.15;8.90;;;-0.40;1.00;;;;;;5134950;27;20298;-65
2021/04/13 04:18:41;;;;;;;64.53;9.27;;;-0.40;1.00;;;;;;5135032;27;20330;-65
2021/04/13 04:21:34;;;;;;;66.93;9.27;;;-0.50;1.00;;;;;;5134777;27;20294;-64
2021/04/13 04:24:05;;;;;;;61.22;7.88;;;-0.50;1.00;;;;;;5134755;27;20701;-65
2021/04/13 04:26:36;;;;;;;62.85;8.98;;;-0.50;1.00;;;;;;5134807;27;20682;-65
2021/04/13 04:29:22;;;;;;;62.20;8.18;;;-0.50;1.00;;;;;;5134616;27;20235;-65
2021/04/13 04:31:49;;;;;;;63.10;7.90;;;-0.50;1.00;;;;;;5134745;27;20207;-65
2021/04/13 04:34:52;;;;;;;62.60;9.05;;;-0.50;1.00;;;;;;5134551;27;20297;-65
2021/04/13 04:37:32;;;;;;;64.60;9.10;;;-0.50;1.00;;;;;;5134647;27;20297;-65
2021/04/13 04:40:43;;;;;;;62.80;8.82;;;-0.50;1.00;;;;;;5134667;27;20226;-65
2021/04/13 04:43:14;;;;;;;62.53;9.00;;;-0.50;1.00;;;;;;5105566;27;20724;-65
2021/04/13 04:45:55;;;;;;;63.15;8.93;;;-0.60;1.00;;;;;;5134364;27;20217;-65
2021/04/13 04:48:25;;;;;;;63.40;8.30;;;-0.60;1.00;;;;;;5131743;27;20218;-65
2021/04/13 04:50:55;;;;;;;60.72;7.70;;;-0.60;1.00;;;;;;5134480;27;20310;-65
2021/04/13 04:53:23;;;;;;;62.00;8.82;;;-0.60;1.00;;;;;;5134046;27;20235;-65
2021/04/13 04:55:50;;;;;;;63.70;8.98;;;-0.60;1.00;;;;;;5134487;27;20294;-65
2021/04/13 04:58:17;;;;;;;61.97;8.63;;;-0.60;1.00;;;;;;5134350;27;20701;-65
2021/04/13 05:00:43;;;;;;;64.40;9.68;;;-0.60;1.00;;;;;;5134094;27;20666;-65
2021/04/13 05:03:09;;;;;;;63.30;9.10;;;-0.60;1.00;;;;;;5133842;27;20246;-65
2021/04/13 05:05:36;;;;;;;62.45;9.18;;;-0.60;1.00;;;;;;5134099;27;20207;-65
2021/04/13 05:08:02;;;;;;;62.47;8.95;;;-0.60;1.00;;;;;;5133789;27;20289;-65
2021/04/13 05:10:29;;;;;;;65.72;9.93;;;-0.70;1.00;;;;;;5133985;27;20301;-65
2021/04/13 05:12:56;;;;;;;63.90;9.50;;;-0.70;1.00;;;;;;5133553;27;20306;-65
2021/04/13 05:15:22;;;;;;;62.63;9.25;;;-0.70;1.00;;;;;;5133888;27;20307;-64
2021/04/13 05:17:48;;;;;;;61.58;8.05;;;-0.70;1.00;;;;;;5133919;27;20625;-65
2021/04/13 05:20:16;;;;;;;63.20;8.90;;;-0.70;1.00;;;;;;5133543;27;20258;-65
2021/04/13 05:22:42;;;;;;;62.88;9.38;;;-0.60;1.00;;;;;;5133308;27;20214;-65
2021/04/13 05:25:09;;;;;;;63.58;8.95;;;-0.60;1.00;;;;;;5133616;27;20213;-65
2021/04/13 05:27:37;;;;;;;63.75;9.32;;;-0.60;1.00;;;;;;5133352;27;20245;-65
2021/04/13 05:30:04;;;;;;;63.22;9.18;;;-0.60;1.00;;;;;;5133559;27;20305;-64
2021/04/13 05:32:30;;;;;;;64.18;9.57;;;-0.60;1.00;;;;;;5133577;27;20209;-64
2021/04/13 05:34:56;;;;;;;62.42;9.70;;;-0.50;1.00;;;;;;5133476;27;20297;-64
2021/04/13 05:37:25;;;;;;;63.90;10.70;;;-0.50;1.00;;;;;;5133221;27;20211;-64
2021/04/13 05:39:52;;;;;;;65.20;10.82;;;-0.40;1.00;;;;;;5132949;27;20223;-64
2021/04/13 05:42:22;;;;;;;63.00;9.75;;;-0.40;1.00;;;;;;5133050;27;20209;-64
2021/04/13 05:44:50;;;;;;;65.80;10.60;;;-0.30;1.00;;;;;;5133356;27;20297;-64
2021/04/13 05:47:17;;;;;;;64.50;10.55;;;-0.30;1.00;;;;;;5132352;27;20203;-64
2021/04/13 05:49:44;;;;;;;65.35;10.27;;;-0.20;1.00;;;;;;5132532;27;20307;-64
2021/04/13 05:52:10;;;;;;;64.18;9.80;;;-0.10;1.00;;;;;;5132954;27;20236;-64
2021/04/13 05:54:36;;;;;;;63.35;10.88;;;-0.10;1.00;;;;;;5132852;27;20286;-65
2021/04/13 05:57:03;;;;;;;67.50;10.60;;;0.00;1.00;;;;;;5132636;27;20631;-65
2021/04/13 05:59:32;;;;;;;67.60;10.70;;;0.10;1.00;;;;;;5131293;27;20262;-65
2021/04/13 06:01:59;;;;;;;64.65;10.02;;;0.10;1.00;;;;;;5131390;27;20298;-65
2021/04/13 06:04:26;;;;;;;62.85;9.73;;;0.20;1.00;;;;;;5131397;27;20294;-65
2021/04/13 06:06:52;;;;;;;65.90;10.23;;;0.20;1.00;;;;;;5132719;27;20353;-65
2021/04/13 06:09:20;;;;;;;65.40;10.38;;;0.20;1.00;;;;;;5132505;27;20225;-65
2021/04/13 06:11:46;;;;;;;64.97;10.60;;;0.30;1.00;;;;;;5132913;27;20675;-65
2021/04/13 06:14:14;;;;;;;66.25;11.02;;;0.40;1.00;;;;;;5132838;27;20199;-65
2021/04/13 06:16:43;;;;;;;64.78;10.43;;;0.40;1.00;;;;;;5132844;27;20289;-65
2021/04/13 06:19:10;;;;;;;65.63;11.43;;;0.50;1.00;;;;;;5132619;27;20237;-65
2021/04/13 06:21:37;;;;;;;66.03;12.00;;;0.60;1.00;;;;;;5132647;27;20232;-65
2021/04/13 06:24:04;;;;;;;69.60;12.43;;;0.70;1.00;;;;;;5132748;27;20209;-65
2021/04/13 06:26:30;;;;;;;69.20;11.77;;;0.70;1.00;;;;;;5132712;27;20241;-65
2021/04/13 06:28:57;;;;;;;67.03;13.10;;;0.80;1.00;;;;;;5132595;27;20222;-65
2021/04/13 06:31:23;;;;;;;69.50;14.30;;;0.90;1.00;;;;;;5132706;27;20230;-65
2021/04/13 06:33:49;;;;;;;67.13;13.30;;;1.00;1.00;;;;;;5132431;27;20293;-65
2021/04/13 06:36:21;;;;;;;67.60;13.90;;;1.10;1.00;;;;;;5132555;27;20234;-65
2021/04/13 06:38:47;;;;;;;65.22;12.77;;;1.20;1.00;;;;;;5132121;27;20233;-65
2021/04/13 06:41:41;;;;;;;69.35;14.98;;;1.30;1.00;;;;;;5132401;27;20203;-65
2021/04/13 06:44:30;;;;;;;66.63;13.50;;;1.40;1.00;;;;;;5132287;27;20243;-65
2021/04/13 06:47:04;;;;;;;68.57;14.00;;;1.50;1.00;;;;;;5121781;27;20290;-65
2021/04/13 06:50:03;;;;;;;75.43;14.65;;;1.60;1.00;;;;;;5132646;27;20218;-65
2021/04/13 06:52:39;;;;;;;71.07;15.55;;;1.80;1.00;;;;;;5132077;27;20228;-65
2021/04/13 06:55:16;;;;;;;69.95;13.85;;;1.90;1.00;;;;;;5132003;27;20293;-65
2021/04/13 06:57:53;;;;;;;65.85;13.43;;;2.10;1.00;;;;;;5132203;27;20650;-65
2021/04/13 07:00:29;;;;;;;67.63;13.23;;;2.20;1.00;;;;;;5135136;27;20237;-65
2021/04/13 07:03:05;;;;;;;68.07;14.32;;;2.30;1.00;;;;;;5136601;27;20298;-66
2021/04/13 07:05:36;;;;;;;71.32;15.70;;;2.40;1.00;;;;;;5136044;27;20202;-65
2021/04/13 07:08:08;;;;;;;70.28;14.30;;;2.50;1.00;;;;;;5136325;27;20202;-65
2021/04/13 07:10:39;;;;;;;70.47;14.25;;;2.50;1.00;;;;;;5136441;27;20282;-66
2021/04/13 07:13:13;;;;;;;69.00;15.15;;;2.70;1.00;;;;;;5136090;27;20211;-65
2021/04/13 07:15:45;;;;;;;71.20;15.05;;;2.80;1.00;;;;;;5135921;27;20206;-66
2021/04/13 07:18:20;;;;;;;70.28;14.30;;;2.90;1.00;;;;;;5136146;27;20215;-65
2021/04/13 07:20:56;;;;;;;70.88;14.50;;;3.00;1.00;;;;;;5136152;27;20213;-65
2021/04/13 07:23:30;;;;;;;67.05;13.20;;;3.20;1.00;;;;;;5135884;27;20298;-65
2021/04/13 07:26:01;;;;;;;68.05;13.98;;;3.30;1.00;;;;;;5135920;27;20203;-66
2021/04/13 07:28:33;;;;;;;68.32;12.90;;;3.40;1.00;;;;;;5135600;27;20240;-65
2021/04/13 07:31:04;;;;;;;67.95;12.88;;;3.60;1.00;;;;;;5136026;27;20242;-66
2021/04/13 07:33:33;;;;;;;66.00;12.00;;;3.80;1.00;;;;;;5135813;27;20242;-66
2021/04/13 07:36:04;;;;;;;66.22;13.15;;;4.00;1.00;;;;;;5135776;27;20245;-63
2021/04/13 07:38:38;;;;;;;68.22;13.77;;;4.20;1.00;;;;;;5135379;27;20226;-64
2021/04/13 07:41:09;;;;;;;67.97;13.02;;;4.30;1.00;;;;;;5135591;27;20203;-64
2021/04/13 07:43:40;;;;;;;64.63;9.70;;;4.50;1.00;;;;;;5135440;27;20671;-64
2021/04/13 07:46:25;;;;;;;65.70;11.55;;;4.90;1.00;;;;;;5135682;27;20209;-64
2021/04/13 07:49:04;;;;;;;67.55;13.02;;;5.80;1.00;;;;;;5135328;27;20251;-64
2021/04/13 07:51:40;;;;;;;66.32;12.60;;;6.40;1.00;;;;;;5135340;27;20309;-65
2021/04/13 07:54:23;;;;;;;67.68;13.23;;;7.00;1.00;;;;;;5135307;27;20289;-65
2021/04/13 07:56:52;;;;;;;66.90;13.13;;;7.20;1.00;;;;;;5135429;27;20213;-65
2021/04/13 07:59:27;;;;;;;68.30;13.15;;;7.10;1.00;;;;;;5135057;27;20228;-65
2021/04/13 08:01:55;;;;;;;66.95;13.13;;;6.80;1.00;;;;;;5135627;27;20285;-65
2021/04/13 08:04:23;;;;;;;66.60;12.32;;;6.60;1.00;;;;;;5135373;27;20200;-65
2021/04/13 08:06:55;;;;;;;66.40;13.30;;;6.40;1.00;;;;;;5135139;27;20293;-65
2021/04/13 08:09:35;;;;;;;65.72;12.75;;;6.40;1.00;;;;;;5134872;27;20748;-65
2021/04/13 08:12:15;;;;;;;65.95;11.60;;;6.40;1.00;;;;;;5134902;27;20200;-65
2021/04/13 08:14:43;;;;;;;65.03;11.55;;;6.40;1.00;;;;;;5135259;27;20207;-64
2021/04/13 08:17:14;;;;;;;66.45;12.75;;;6.50;1.00;;;;;;5135095;27;20634;-65
2021/04/13 08:19:42;;;;;;;65.25;11.63;;;6.50;1.00;;;;;;5134789;27;20237;-65
2021/04/13 08:22:11;;;;;;;64.90;11.10;;;6.40;1.00;;;;;;5134804;27;20239;-65
2021/04/13 08:24:42;;;;;;;65.90;12.43;;;6.40;1.00;;;;;;5134625;27;20203;-68
2021/04/13 08:27:24;;;;;;;64.57;11.00;;;6.60;1.00;;;;;;5134273;27;20287;-66
2021/04/13 08:29:59;;;;;;;66.00;11.90;;;6.60;1.00;;;;;;5134794;27;20304;-67
2021/04/13 08:32:51;;;;;;;64.82;11.90;;;6.80;1.00;;;;;;5134725;27;20639;-67
2021/04/13 08:35:31;;;;;;;65.70;11.27;;;6.90;1.00;;;;;;5134596;27;20715;-67
2021/04/13 08:38:23;;;;;;;67.40;12.27;;;7.10;1.00;;;;;;5134600;27;20214;-67
2021/04/13 08:41:02;;;;;;;67.57;11.23;;;7.30;1.00;;;;;;5131988;27;20299;-67
2021/04/13 08:43:38;;;;;;;65.25;10.93;;;7.60;1.00;;;;;;5134359;27;20202;-66
2021/04/13 08:46:16;;;;;;;65.05;12.23;;;8.00;1.00;;;;;;5134771;27;20203;-67
2021/04/13 08:48:49;;;;;;;65.68;10.40;;;8.30;1.00;;;;;;5134285;27;20302;-67
2021/04/13 08:51:18;;;;;;;63.37;11.87;;;8.30;1.00;;;;;;5134508;27;20636;-67
2021/04/13 08:53:48;;;;;;;66.00;13.05;;;8.40;1.00;;;;;;5133956;27;20494;-67
2021/04/13 08:56:22;;;;;;;67.25;12.48;;;8.30;1.00;;;;;;5134376;27;20206;-68
2021/04/13 08:58:51;;;;;;;65.35;10.45;;;8.10;1.00;;;;;;5134156;27;20664;-67
2021/04/13 09:01:36;;;;;;;65.50;11.93;;;7.80;1.00;;;;;;5134206;27;20207;-67
2021/04/13 09:04:04;;;;;;;68.35;13.15;;;7.60;1.00;;;;;;5134006;27;20625;-67
2021/04/13 09:06:51;;;;;;;63.72;10.80;;;7.60;1.00;;;;;;5133877;27;20657;-68
2021/04/13 09:09:31;;;;;;;64.63;11.03;;;7.70;1.00;;;;;;5133970;27;20565;-68
2021/04/13 09:12:05;;;;;;;63.50;10.63;;;7.90;1.00;;;;;;5133966;27;20571;-68
2021/04/13 09:14:36;;;;;;;63.72;10.75;;;8.10;1.00;;;;;;5133789;27;20207;-69
2021/04/13 09:17:09;;;;;;;65.10;11.23;;;8.30;1.00;;;;;;5133813;27;20664;-69
2021/04/13 09:19:41;;;;;;;64.37;11.43;;;8.60;1.00;;;;;;5133927;27;20319;-68
2021/04/13 09:22:23;;;;;;;63.97;11.13;;;8.90;1.00;;;;;;5132921;27;20556;-68
2021/04/13 09:25:06;;;;;;;65.90;10.77;;;9.20;1.00;;;;;;5133824;27;20850;-68
2021/04/13 09:27:41;;;;;;;62.87;10.80;;;9.60;1.00;;;;;;5133634;27;20459;-64
2021/04/13 09:30:32;;;;;;;64.70;10.17;;;9.90;1.00;;;;;;5133508;27;21209;-66
2021/04/13 09:33:12;;;;;;;62.60;9.17;;;10.30;1.00;;;;;;5133595;27;20445;-67
2021/04/13 09:36:01;;;;;;;64.20;10.40;;;10.40;1.00;;;;;;5133432;27;20807;-66
2021/04/13 09:38:56;;;;;;;63.27;9.93;;;10.40;1.00;;;;;;5133195;27;20518;-66
2021/04/13 09:41:43;;;;;;;61.60;8.90;;;10.30;1.00;;;;;;5127982;27;20545;-68
2021/04/13 09:44:29;;;;;;;62.07;9.90;;;10.50;1.00;;;;;;5133456;27;20885;-68
2021/04/13 09:47:05;;;;;;;62.67;8.47;;;10.80;1.00;;;;;;5133505;27;20539;-68
2021/04/13 09:49:48;;;;;;;64.40;10.03;;;11.10;1.00;;;;;;5133122;27;20488;-68
2021/04/13 09:52:43;;;;;;;61.30;8.73;;;11.60;1.00;;;;;;5132912;27;20447;-68
2021/04/13 09:55:30;;;;;;;59.73;8.07;;;12.00;1.00;;;;;;5130405;27;20461;-67
2021/04/13 09:58:28;;;;;;;62.70;8.30;;;12.60;1.00;;;;;;5133010;27;20452;-66
2021/04/13 10:01:05;;;;;;;59.70;7.33;;;12.70;1.00;;;;;;5133052;27;20452;-68
2021/04/13 10:03:56;;;;;;;59.83;7.13;;;12.50;1.00;;;;;;5132328;27;20444;-67
2021/04/13 10:06:28;;;;;;;59.67;7.47;;;12.00;1.00;;;;;;5132047;27;20450;-66
2021/04/13 10:09:03;;;;;;;60.23;7.43;;;11.40;1.00;;;;;;5132406;27;20491;-66
2021/04/13 10:12:10;;;;;;;60.67;7.13;;;11.30;1.00;;;;;;5132783;27;21025;-67
2021/04/13 10:15:09;;;;;;;60.60;7.47;;;12.80;1.00;;;;;;5132782;27;20522;-68
2021/04/13 10:17:56;;;;;;;59.53;6.90;;;15.20;1.00;;;;;;5132851;27;20493;-65
2021/04/13 10:20:31;;;;;;;60.00;7.67;;;17.10;1.00;;;;;;5132567;27;20459;-66
2021/04/13 10:23:27;;;;;;;59.80;6.80;;;17.60;1.00;;;;;;5132539;27;20445;-67
2021/04/13 10:26:20;;;;;;;59.77;6.80;;;18.30;1.00;;;;;;5132486;27;20436;-67
2021/04/13 10:29:34;;;;;;;58.60;6.70;;;19.10;1.00;;;;;;5132520;27;20476;-67
2021/04/13 10:32:26;;;;;;;59.80;6.80;;;19.70;1.00;;;;;;5132918;27;20458;-67
2021/04/13 10:35:21;;;;;;;58.67;6.77;;;20.10;1.00;;;;;;5132346;27;20541;-67
2021/04/13 10:38:38;;;;;;;58.10;6.47;;;20.10;1.00;;;;;;5132410;27;20452;-67
2021/04/13 10:41:49;;;;;;;57.40;6.00;;;19.80;1.00;;;;;;5115384;27;20492;-66
2021/04/13 10:44:57;;;;;;;58.40;6.00;;;18.30;1.00;;;;;;5097739;27;20451;-66
2021/04/13 10:48:04;;;;;;;60.80;6.23;;;16.90;1.00;;;;;;5132546;27;20441;-66
2021/04/13 10:51:14;;;;;;;58.20;5.23;;;16.30;1.00;;;;;;5132261;27;20474;-67
2021/04/13 10:54:17;;;;;;;57.67;5.50;;;17.90;1.00;;;;;;5132191;27;20889;-67
2021/04/13 10:57:18;;;;;;;57.70;5.50;;;19.80;1.00;;;;;;5132266;27;20811;-66
2021/04/13 11:00:05;;;;;;;59.30;6.43;;;21.40;1.00;;;;;;5126746;27;20487;-67
2021/04/13 11:03:15;;;;;;;59.47;6.43;;;22.60;1.00;;;;;;5132241;27;20981;-67
2021/04/13 11:06:17;;;;;;;58.20;6.00;;;22.80;1.00;;;;;;5132509;27;20440;-67
2021/04/13 11:09:09;;;;;;;59.13;6.00;;;21.20;1.00;;;;;;5132128;27;20556;-67
2021/04/13 11:12:08;;;;;;;59.47;7.37;;;19.90;1.00;;;;;;5132178;27;20513;-68
2021/04/13 11:15:25;;;;;;;58.40;6.40;;;20.30;1.00;;;;;;5132274;27;20525;-67
2021/04/13 11:18:00;;;;;;;58.57;6.30;;;19.40;1.00;;;;;;5095251;27;20509;-67
2021/04/13 11:20:59;;;;;;;59.37;6.40;;;18.50;1.00;;;;;;5131963;27;20876;-67
2021/04/13 11:23:55;;;;;;;57.97;6.07;;;19.40;1.00;;;;;;5131876;27;20449;-66
2021/04/13 11:26:58;;;;;;;58.17;6.13;;;20.10;1.00;;;;;;5132225;27;20526;-66
2021/04/13 11:30:12;;;;;;;59.30;6.60;;;19.90;1.00;;;;;;5131800;27;20470;-67
2021/04/13 11:33:29;;;;;;;60.07;6.10;;;19.60;1.00;;;;;;5131850;27;20535;-66
2021/04/13 11:36:08;;;;;;;58.70;6.53;;;20.80;1.00;;;;;;5127746;28;20569;-67
2021/04/13 11:39:00;;;;;;;59.10;6.33;;;22.50;1.00;;;;;;5131498;27;20484;-66
2021/04/13 11:41:52;;;;;;;58.17;6.10;;;23.40;1.00;;;;;;5132089;27;20617;-67
2021/04/13 11:44:25;;;;;;;58.10;5.50;;;23.90;1.00;;;;;;5132354;27;20931;-67
2021/04/13 11:46:57;;;;;;;60.10;5.97;;;24.40;1.00;;;;;;5135234;27;20457;-67
2021/04/13 11:49:35;;;;;;;59.17;7.63;;;24.40;1.00;;;;;;5135426;27;20467;-67
2021/04/13 11:52:10;;;;;;;61.33;7.17;;;22.90;1.00;;;;;;5135497;27;20534;-66
2021/04/13 11:54:52;;;;;;;59.67;7.20;;;20.90;1.00;;;;;;5135444;27;20450;-66
2021/04/13 11:57:21;;;;;;;59.97;7.97;;;19.20;1.00;;;;;;5135620;27;20532;-67
2021/04/13 12:00:28;;;;;;;59.30;6.63;;;17.70;1.00;;;;;;5135379;27;20515;-66
2021/04/13 12:03:28;;;;;;;58.97;5.70;;;16.10;1.00;;;;;;5104080;27;20515;-66
2021/04/13 12:05:56;;;;;;;58.87;5.70;;;14.80;1.00;;;;;;5135435;27;20449;-66
2021/04/13 12:08:49;;;;;;;58.10;5.87;;;14.00;1.00;;;;;;5135155;27;20505;-66
2021/04/13 12:11:33;;;;;;;58.57;5.73;;;13.50;1.00;;;;;;5135226;27;20473;-66
2021/04/13 12:14:30;;;;;;;60.10;6.63;;;13.00;1.00;;;;;;5121567;27;20491;-66
2021/04/13 12:17:03;;;;;;;58.83;6.30;;;12.60;1.00;;;;;;5134980;27;20523;-66
2021/04/13 12:19:29;;;;;;;58.83;5.77;;;12.40;1.00;;;;;;5134709;27;20484;-66
2021/04/13 12:21:57;;;;;;;58.50;5.67;;;12.20;1.00;;;;;;5134850;27;20526;-66
2021/04/13 12:24:47;;;;;;;58.57;5.80;;;12.30;1.00;;;;;;5134718;27;20828;-66
2021/04/13 12:27:41;;;;;;;58.57;5.30;;;12.40;1.00;;;;;;5134931;27;20441;-66
2021/04/13 12:30:32;;;;;;;58.27;5.40;;;12.70;1.00;;;;;;5128645;27;20479;-66
2021/04/13 12:32:59;;;;;;;59.37;5.50;;;13.20;1.00;;;;;;5134472;27;20448;-67
2021/04/13 12:35:54;;;;;;;57.77;5.10;;;14.30;1.00;;;;;;5134652;27;20452;-67
2021/04/13 12:38:43;;;;;;;58.70;5.93;;;17.00;1.00;;;;;;5120592;27;20466;-67
2021/04/13 12:41:15;;;;;;;58.40;5.27;;;19.20;1.00;;;;;;5134904;27;20437;-67
2021/04/13 12:43:43;;;;;;;58.73;5.87;;;21.10;1.00;;;;;;5134774;27;20535;-66
2021/04/13 12:46:26;;;;;;;59.17;5.27;;;22.80;1.00;;;;;;5134462;27;20523;-66
2021/04/13 12:48:55;;;;;;;57.27;5.00;;;24.20;1.00;;;;;;5134134;27;20465;-66
2021/04/13 12:51:26;;;;;;;58.13;4.43;;;25.20;1.00;;;;;;5134101;27;20477;-66
2021/04/13 12:54:16;;;;;;;57.97;4.73;;;26.20;1.00;;;;;;5134378;27;20527;-66
2021/04/13 12:56:51;;;;;;;58.40;4.70;;;27.20;1.00;;;;;;5134089;27;20440;-66
2021/04/13 12:59:23;;;;;;;57.70;5.00;;;26.90;1.00;;;;;;5133945;27;21035;-66
2021/04/13 13:01:49;;;;;;;58.00;4.90;;;26.70;1.00;;;;;;5133953;27;21133;-65
2021/04/13 13:04:17;;;;;;;57.17;4.50;;;27.10;1.00;;;;;;5134102;27;20968;-67
2021/04/13 13:06:48;;;;;;;58.70;5.30;;;26.60;1.00;;;;;;5133944;27;20532;-67
2021/04/13 13:09:32;;;;;;;57.20;4.70;;;25.00;1.00;;;;;;5133855;27;20559;-66
2021/04/13 13:12:05;;;;;;;57.53;4.20;;;23.10;1.00;;;;;;5134243;27;20448;-66
2021/04/13 13:14:37;;;;;;;57.87;4.90;;;21.20;1.00;;;;;;5134098;27;20478;-67
2021/04/13 13:17:04;;;;;;;57.20;4.17;;;19.50;1.00;;;;;;5133960;27;20775;-67
2021/04/13 13:19:34;;;;;;;57.57;4.20;;;17.90;1.00;;;;;;5133628;27;20586;-67
2021/04/13 13:22:12;;;;;;;58.67;5.00;;;16.60;1.00;;;;;;5133679;27;20457;-67
2021/04/13 13:24:38;;;;;;;57.77;4.33;;;15.40;1.00;;;;;;5133486;27;20539;-67
2021/04/13 13:27:18;;;;;;;57.57;4.27;;;14.50;1.00;;;;;;5133964;27;20444;-69
2021/04/13 13:29:47;;;;;;;57.97;4.43;;;13.90;1.00;;;;;;5133542;27;20797;-67
2021/04/13 13:32:15;;;;;;;59.67;4.37;;;13.50;1.00;;;;;;5133587;27;20493;-66
2021/04/13 13:34:42;;;;;;;63.10;4.50;;;13.20;1.00;;;;;;5133688;27;20451;-67